sensor_id;sensor_type;location;lat;lon;timestamp;temperature;humidity
17807;DHT22;9027;48.938;9.182;2023-01-24T00:00:12;4.10;99.90
17807;DHT22;9027;48.938;9.182;2023-01-24T00:01:44;4.10;99.90
17807;DHT22;9027;48.938;9.182;2023-01-24T00:03:16;4.10;99.90
17807;DHT22;9027;48.938;9.182;2023-01-24T00:04:47;4.10;99.90
17807;DHT22;9027;48.938;9.182;2023-01-24T00:06:19;4.10;99.90
17807;DHT22;9027;48.938;9.182;2023-01-24T00:07:51;4.10;99.90
17807;DHT22;9027;48.938;9.182;2023-01-24T00:09:23;4.10;99.90
17807;DHT22;9027;48.938;9.182;2023-01-24T00:10:59;4.00;99.90
17807;DHT22;9027;48.938;9.182;2023-01-24T00:12:31;4.00;99.90
17807;DHT22;9027;48.938;9.182;2023-01-24T00:14:03;4.00;99.90
17807;DHT22;9027;48.938;9.182;2023-01-24T00:15:35;4.00;99.90
17807;DHT22;9027;48.938;9.182;2023-01-24T00:17:07;4.00;99.90
17807;DHT22;9027;48.938;9.182;2023-01-24T00:18:39;4.00;99.90
17807;DHT22;9027;48.938;9.182;2023-01-24T00:20:11;4.00;99.90
17807;DHT22;9027;48.938;9.182;2023-01-24T00:21:43;4.00;99.90
17807;DHT22;9027;48.938;9.182;2023-01-24T00:23:15;4.10;99.90
17807;DHT22;9027;48.938;9.182;2023-01-24T00:24:47;4.00;99.90
17807;DHT22;9027;48.938;9.182;2023-01-24T00:26:23;4.00;99.90
17807;DHT22;9027;48.938;9.182;2023-01-24T00:27:55;4.00;99.90
17807;DHT22;9027;48.938;9.182;2023-01-24T00:29:28;4.00;99.90
17807;DHT22;9027;48.938;9.182;2023-01-24T00:31:00;4.00;99.90
17807;DHT22;9027;48.938;9.182;2023-01-24T00:32:31;4.00;99.90
17807;DHT22;9027;48.938;9.182;2023-01-24T00:34:03;4.00;99.90
17807;DHT22;9027;48.938;9.182;2023-01-24T00:35:35;4.00;99.90
17807;DHT22;9027;48.938;9.182;2023-01-24T00:37:06;3.90;99.90
17807;DHT22;9027;48.938;9.182;2023-01-24T00:38:38;3.90;99.90
17807;DHT22;9027;48.938;9.182;2023-01-24T00:40:10;4.00;99.90
17807;DHT22;9027;48.938;9.182;2023-01-24T00:41:44;4.00;99.90
17807;DHT22;9027;48.938;9.182;2023-01-24T00:43:16;4.00;99.90
17807;DHT22;9027;48.938;9.182;2023-01-24T00:44:48;4.00;99.90
17807;DHT22;9027;48.938;9.182;2023-01-24T00:46:20;3.90;99.90
17807;DHT22;9027;48.938;9.182;2023-01-24T00:47:53;3.90;99.90
17807;DHT22;9027;48.938;9.182;2023-01-24T00:49:24;3.90;99.90
17807;DHT22;9027;48.938;9.182;2023-01-24T00:50:55;3.90;99.90
17807;DHT22;9027;48.938;9.182;2023-01-24T00:52:27;3.90;99.90
17807;DHT22;9027;48.938;9.182;2023-01-24T00:53:58;3.90;99.90
17807;DHT22;9027;48.938;9.182;2023-01-24T00:55:30;3.90;99.90
17807;DHT22;9027;48.938;9.182;2023-01-24T00:57:04;3.90;99.90
17807;DHT22;9027;48.938;9.182;2023-01-24T00:58:35;3.90;99.90
17807;DHT22;9027;48.938;9.182;2023-01-24T01:00:08;3.90;99.90
17807;DHT22;9027;48.938;9.182;2023-01-24T01:01:40;3.90;99.90
17807;DHT22;9027;48.938;9.182;2023-01-24T01:03:13;3.90;99.90
17807;DHT22;9027;48.938;9.182;2023-01-24T01:04:46;3.80;99.90
17807;DHT22;9027;48.938;9.182;2023-01-24T01:06:18;3.90;99.90
17807;DHT22;9027;48.938;9.182;2023-01-24T01:07:50;3.90;99.90
17807;DHT22;9027;48.938;9.182;2023-01-24T01:09:22;3.90;99.90
17807;DHT22;9027;48.938;9.182;2023-01-24T01:10:54;3.80;99.90
17807;DHT22;9027;48.938;9.182;2023-01-24T01:12:28;3.90;99.90
17807;DHT22;9027;48.938;9.182;2023-01-24T01:14:00;3.90;99.90
17807;DHT22;9027;48.938;9.182;2023-01-24T01:15:32;3.90;99.90
17807;DHT22;9027;48.938;9.182;2023-01-24T01:17:03;3.90;99.90
17807;DHT22;9027;48.938;9.182;2023-01-24T01:18:36;3.90;99.90
17807;DHT22;9027;48.938;9.182;2023-01-24T01:20:09;3.90;99.90
17807;DHT22;9027;48.938;9.182;2023-01-24T01:21:41;3.90;99.90
17807;DHT22;9027;48.938;9.182;2023-01-24T01:23:15;3.80;99.90
17807;DHT22;9027;48.938;9.182;2023-01-24T01:24:46;3.80;99.90
17807;DHT22;9027;48.938;9.182;2023-01-24T01:26:20;3.80;99.90
17807;DHT22;9027;48.938;9.182;2023-01-24T01:27:54;3.80;99.90
17807;DHT22;9027;48.938;9.182;2023-01-24T01:29:25;3.80;99.90
17807;DHT22;9027;48.938;9.182;2023-01-24T01:30:56;3.80;99.90
17807;DHT22;9027;48.938;9.182;2023-01-24T01:32:29;3.80;99.90
17807;DHT22;9027;48.938;9.182;2023-01-24T01:34:00;3.90;99.90
17807;DHT22;9027;48.938;9.182;2023-01-24T01:35:32;3.90;99.90
17807;DHT22;9027;48.938;9.182;2023-01-24T01:37:04;3.90;99.90
17807;DHT22;9027;48.938;9.182;2023-01-24T01:38:36;3.80;99.90
17807;DHT22;9027;48.938;9.182;2023-01-24T01:40:09;3.80;99.90
17807;DHT22;9027;48.938;9.182;2023-01-24T01:41:41;3.80;99.90
17807;DHT22;9027;48.938;9.182;2023-01-24T01:43:15;3.80;99.90
17807;DHT22;9027;48.938;9.182;2023-01-24T01:44:49;3.80;99.90
17807;DHT22;9027;48.938;9.182;2023-01-24T01:46:24;3.80;99.90
17807;DHT22;9027;48.938;9.182;2023-01-24T01:48:00;3.80;99.90
17807;DHT22;9027;48.938;9.182;2023-01-24T01:49:33;3.80;99.90
17807;DHT22;9027;48.938;9.182;2023-01-24T01:51:10;3.80;99.90
17807;DHT22;9027;48.938;9.182;2023-01-24T01:52:43;3.80;99.90
17807;DHT22;9027;48.938;9.182;2023-01-24T01:54:17;3.80;99.90
17807;DHT22;9027;48.938;9.182;2023-01-24T01:55:57;3.80;99.90
17807;DHT22;9027;48.938;9.182;2023-01-24T01:57:31;3.90;99.90
17807;DHT22;9027;48.938;9.182;2023-01-24T01:59:07;3.80;99.90
17807;DHT22;9027;48.938;9.182;2023-01-24T02:00:40;3.80;99.90
17807;DHT22;9027;48.938;9.182;2023-01-24T02:02:12;3.80;99.90
17807;DHT22;9027;48.938;9.182;2023-01-24T02:03:49;3.80;99.90
17807;DHT22;9027;48.938;9.182;2023-01-24T02:05:24;3.80;99.90
17807;DHT22;9027;48.938;9.182;2023-01-24T02:07:00;3.80;99.90
17807;DHT22;9027;48.938;9.182;2023-01-24T02:08:33;3.90;99.90
17807;DHT22;9027;48.938;9.182;2023-01-24T02:10:04;3.90;99.90
17807;DHT22;9027;48.938;9.182;2023-01-24T02:11:38;3.90;99.90
17807;DHT22;9027;48.938;9.182;2023-01-24T02:13:09;3.90;99.90
17807;DHT22;9027;48.938;9.182;2023-01-24T02:14:43;3.90;99.90
17807;DHT22;9027;48.938;9.182;2023-01-24T02:16:33;3.80;99.90
17807;DHT22;9027;48.938;9.182;2023-01-24T02:18:05;3.80;99.90
17807;DHT22;9027;48.938;9.182;2023-01-24T02:19:58;3.90;99.90
17807;DHT22;9027;48.938;9.182;2023-01-24T02:21:32;3.90;99.90
17807;DHT22;9027;48.938;9.182;2023-01-24T02:23:14;3.90;99.90
17807;DHT22;9027;48.938;9.182;2023-01-24T02:24:59;3.80;99.90
17807;DHT22;9027;48.938;9.182;2023-01-24T02:26:32;3.80;99.90
17807;DHT22;9027;48.938;9.182;2023-01-24T02:28:06;3.80;99.90
17807;DHT22;9027;48.938;9.182;2023-01-24T02:29:38;3.80;99.90
17807;DHT22;9027;48.938;9.182;2023-01-24T02:31:10;3.80;99.90
17807;DHT22;9027;48.938;9.182;2023-01-24T02:32:41;3.80;99.90
17807;DHT22;9027;48.938;9.182;2023-01-24T02:34:13;3.80;99.90
17807;DHT22;9027;48.938;9.182;2023-01-24T02:35:45;3.80;99.90
17807;DHT22;9027;48.938;9.182;2023-01-24T02:37:17;3.90;99.90
17807;DHT22;9027;48.938;9.182;2023-01-24T02:38:52;3.90;99.90
17807;DHT22;9027;48.938;9.182;2023-01-24T02:40:27;3.90;99.90
17807;DHT22;9027;48.938;9.182;2023-01-24T02:42:05;3.90;99.90
17807;DHT22;9027;48.938;9.182;2023-01-24T02:43:40;4.00;99.90
17807;DHT22;9027;48.938;9.182;2023-01-24T02:45:18;4.00;99.90
17807;DHT22;9027;48.938;9.182;2023-01-24T02:46:51;4.10;99.90
17807;DHT22;9027;48.938;9.182;2023-01-24T02:48:22;4.00;99.90
17807;DHT22;9027;48.938;9.182;2023-01-24T02:49:54;4.00;99.90
17807;DHT22;9027;48.938;9.182;2023-01-24T02:51:26;4.00;99.90
17807;DHT22;9027;48.938;9.182;2023-01-24T02:53:16;3.90;99.90
17807;DHT22;9027;48.938;9.182;2023-01-24T02:55:03;3.90;99.90
17807;DHT22;9027;48.938;9.182;2023-01-24T02:56:35;3.90;99.90
17807;DHT22;9027;48.938;9.182;2023-01-24T02:58:26;3.90;99.90
17807;DHT22;9027;48.938;9.182;2023-01-24T02:59:57;3.80;99.90
17807;DHT22;9027;48.938;9.182;2023-01-24T03:01:30;3.70;99.90
17807;DHT22;9027;48.938;9.182;2023-01-24T03:03:02;3.80;99.90
17807;DHT22;9027;48.938;9.182;2023-01-24T03:04:34;3.80;99.90
17807;DHT22;9027;48.938;9.182;2023-01-24T03:06:07;3.90;99.90
17807;DHT22;9027;48.938;9.182;2023-01-24T03:07:41;3.90;99.90
17807;DHT22;9027;48.938;9.182;2023-01-24T03:09:13;3.90;99.90
17807;DHT22;9027;48.938;9.182;2023-01-24T03:10:52;3.90;99.90
17807;DHT22;9027;48.938;9.182;2023-01-24T03:12:23;3.90;99.90
17807;DHT22;9027;48.938;9.182;2023-01-24T03:14:15;3.80;99.90
17807;DHT22;9027;48.938;9.182;2023-01-24T03:16:05;3.80;99.90
17807;DHT22;9027;48.938;9.182;2023-01-24T03:17:58;3.80;99.90
17807;DHT22;9027;48.938;9.182;2023-01-24T03:19:47;3.80;99.90
17807;DHT22;9027;48.938;9.182;2023-01-24T03:21:36;3.90;99.90
17807;DHT22;9027;48.938;9.182;2023-01-24T03:23:26;3.80;99.90
17807;DHT22;9027;48.938;9.182;2023-01-24T03:25:15;3.90;99.90
17807;DHT22;9027;48.938;9.182;2023-01-24T03:27:05;3.90;99.90
17807;DHT22;9027;48.938;9.182;2023-01-24T03:28:55;3.80;99.90
17807;DHT22;9027;48.938;9.182;2023-01-24T03:30:46;3.80;99.90
17807;DHT22;9027;48.938;9.182;2023-01-24T03:32:38;3.80;99.90
17807;DHT22;9027;48.938;9.182;2023-01-24T03:34:27;3.80;99.90
17807;DHT22;9027;48.938;9.182;2023-01-24T03:36:03;3.80;99.90
17807;DHT22;9027;48.938;9.182;2023-01-24T03:37:38;3.80;99.90
17807;DHT22;9027;48.938;9.182;2023-01-24T03:39:29;3.80;99.90
17807;DHT22;9027;48.938;9.182;2023-01-24T03:41:19;3.70;99.90
17807;DHT22;9027;48.938;9.182;2023-01-24T03:42:51;3.80;99.90
17807;DHT22;9027;48.938;9.182;2023-01-24T03:44:29;3.80;99.90
17807;DHT22;9027;48.938;9.182;2023-01-24T03:46:02;3.70;99.90
17807;DHT22;9027;48.938;9.182;2023-01-24T03:47:46;3.80;99.90
17807;DHT22;9027;48.938;9.182;2023-01-24T03:49:25;3.80;99.90
17807;DHT22;9027;48.938;9.182;2023-01-24T03:51:15;3.80;99.90
17807;DHT22;9027;48.938;9.182;2023-01-24T03:53:06;3.80;99.90
17807;DHT22;9027;48.938;9.182;2023-01-24T03:54:38;3.80;99.90
17807;DHT22;9027;48.938;9.182;2023-01-24T03:56:12;3.80;99.90
17807;DHT22;9027;48.938;9.182;2023-01-24T03:57:49;3.80;99.90
17807;DHT22;9027;48.938;9.182;2023-01-24T03:59:21;3.80;99.90
17807;DHT22;9027;48.938;9.182;2023-01-24T04:00:54;3.90;99.90
17807;DHT22;9027;48.938;9.182;2023-01-24T04:02:50;3.90;99.90
17807;DHT22;9027;48.938;9.182;2023-01-24T04:04:25;3.90;99.90
17807;DHT22;9027;48.938;9.182;2023-01-24T04:06:16;4.00;99.90
17807;DHT22;9027;48.938;9.182;2023-01-24T04:07:49;3.90;99.90
17807;DHT22;9027;48.938;9.182;2023-01-24T04:09:20;4.00;99.90
17807;DHT22;9027;48.938;9.182;2023-01-24T04:10:54;3.90;99.90
17807;DHT22;9027;48.938;9.182;2023-01-24T04:12:26;3.90;99.90
17807;DHT22;9027;48.938;9.182;2023-01-24T04:13:58;3.90;99.90
17807;DHT22;9027;48.938;9.182;2023-01-24T04:15:32;3.90;99.90
17807;DHT22;9027;48.938;9.182;2023-01-24T04:17:24;3.80;99.90
17807;DHT22;9027;48.938;9.182;2023-01-24T04:18:58;3.90;99.90
17807;DHT22;9027;48.938;9.182;2023-01-24T04:20:32;3.90;99.90
17807;DHT22;9027;48.938;9.182;2023-01-24T04:22:06;3.90;99.90
17807;DHT22;9027;48.938;9.182;2023-01-24T04:23:39;3.80;99.90
17807;DHT22;9027;48.938;9.182;2023-01-24T04:25:11;3.90;99.90
17807;DHT22;9027;48.938;9.182;2023-01-24T04:26:46;3.90;99.90
17807;DHT22;9027;48.938;9.182;2023-01-24T04:28:23;3.90;99.90
17807;DHT22;9027;48.938;9.182;2023-01-24T04:29:56;3.90;99.90
17807;DHT22;9027;48.938;9.182;2023-01-24T04:31:27;3.90;99.90
17807;DHT22;9027;48.938;9.182;2023-01-24T04:33:23;4.00;99.90
17807;DHT22;9027;48.938;9.182;2023-01-24T04:34:56;4.00;99.90
17807;DHT22;9027;48.938;9.182;2023-01-24T04:36:45;3.90;99.90
17807;DHT22;9027;48.938;9.182;2023-01-24T04:38:17;3.90;99.90
17807;DHT22;9027;48.938;9.182;2023-01-24T04:40:15;3.90;99.90
17807;DHT22;9027;48.938;9.182;2023-01-24T04:41:47;3.80;99.90
17807;DHT22;9027;48.938;9.182;2023-01-24T04:43:20;3.90;99.90
17807;DHT22;9027;48.938;9.182;2023-01-24T04:44:53;3.90;99.90
17807;DHT22;9027;48.938;9.182;2023-01-24T04:46:26;3.90;99.90
17807;DHT22;9027;48.938;9.182;2023-01-24T04:47:59;3.90;99.90
17807;DHT22;9027;48.938;9.182;2023-01-24T04:49:31;3.90;99.90
17807;DHT22;9027;48.938;9.182;2023-01-24T04:51:04;3.90;99.90
17807;DHT22;9027;48.938;9.182;2023-01-24T04:52:37;3.90;99.90
17807;DHT22;9027;48.938;9.182;2023-01-24T04:54:12;4.00;99.90
17807;DHT22;9027;48.938;9.182;2023-01-24T04:55:44;3.90;99.90
17807;DHT22;9027;48.938;9.182;2023-01-24T04:57:16;3.90;99.90
17807;DHT22;9027;48.938;9.182;2023-01-24T04:58:48;3.80;99.90
17807;DHT22;9027;48.938;9.182;2023-01-24T05:00:21;3.90;99.90
17807;DHT22;9027;48.938;9.182;2023-01-24T05:01:53;3.90;99.90
17807;DHT22;9027;48.938;9.182;2023-01-24T05:03:37;3.90;99.90
17807;DHT22;9027;48.938;9.182;2023-01-24T05:05:09;3.80;99.90
17807;DHT22;9027;48.938;9.182;2023-01-24T05:06:43;3.80;99.90
17807;DHT22;9027;48.938;9.182;2023-01-24T05:08:15;3.80;99.90
17807;DHT22;9027;48.938;9.182;2023-01-24T05:09:47;3.80;99.90
17807;DHT22;9027;48.938;9.182;2023-01-24T05:11:19;3.80;99.90
17807;DHT22;9027;48.938;9.182;2023-01-24T05:12:52;3.80;99.90
17807;DHT22;9027;48.938;9.182;2023-01-24T05:14:26;3.80;99.90
17807;DHT22;9027;48.938;9.182;2023-01-24T05:15:59;3.90;99.90
17807;DHT22;9027;48.938;9.182;2023-01-24T05:17:31;3.80;99.90
17807;DHT22;9027;48.938;9.182;2023-01-24T05:19:03;3.70;99.90
17807;DHT22;9027;48.938;9.182;2023-01-24T05:20:35;3.70;99.90
17807;DHT22;9027;48.938;9.182;2023-01-24T05:22:08;3.70;99.90
17807;DHT22;9027;48.938;9.182;2023-01-24T05:23:49;3.70;99.90
17807;DHT22;9027;48.938;9.182;2023-01-24T05:25:22;3.70;99.90
17807;DHT22;9027;48.938;9.182;2023-01-24T05:26:54;3.70;99.90
17807;DHT22;9027;48.938;9.182;2023-01-24T05:28:29;3.70;99.90
17807;DHT22;9027;48.938;9.182;2023-01-24T05:30:02;3.60;99.90
17807;DHT22;9027;48.938;9.182;2023-01-24T05:31:34;3.60;99.90
17807;DHT22;9027;48.938;9.182;2023-01-24T05:33:07;3.60;99.90
17807;DHT22;9027;48.938;9.182;2023-01-24T05:34:38;3.70;99.90
17807;DHT22;9027;48.938;9.182;2023-01-24T05:36:14;3.70;99.90
17807;DHT22;9027;48.938;9.182;2023-01-24T05:37:49;3.60;99.90
17807;DHT22;9027;48.938;9.182;2023-01-24T05:39:21;3.70;99.90
17807;DHT22;9027;48.938;9.182;2023-01-24T05:40:57;3.60;99.90
17807;DHT22;9027;48.938;9.182;2023-01-24T05:42:29;3.60;99.90
17807;DHT22;9027;48.938;9.182;2023-01-24T05:44:01;3.70;99.90
17807;DHT22;9027;48.938;9.182;2023-01-24T05:45:39;3.70;99.90
17807;DHT22;9027;48.938;9.182;2023-01-24T05:47:10;3.80;99.90
17807;DHT22;9027;48.938;9.182;2023-01-24T05:48:45;3.90;99.90
17807;DHT22;9027;48.938;9.182;2023-01-24T05:50:18;3.90;99.90
17807;DHT22;9027;48.938;9.182;2023-01-24T05:52:10;4.00;99.90
17807;DHT22;9027;48.938;9.182;2023-01-24T05:53:51;4.00;99.90
17807;DHT22;9027;48.938;9.182;2023-01-24T05:55:43;4.10;99.90
17807;DHT22;9027;48.938;9.182;2023-01-24T05:57:15;4.10;99.90
17807;DHT22;9027;48.938;9.182;2023-01-24T05:59:07;4.20;99.90
17807;DHT22;9027;48.938;9.182;2023-01-24T06:00:41;4.10;99.90
17807;DHT22;9027;48.938;9.182;2023-01-24T06:02:33;4.00;99.90
17807;DHT22;9027;48.938;9.182;2023-01-24T06:04:05;3.90;99.90
17807;DHT22;9027;48.938;9.182;2023-01-24T06:05:37;3.90;99.90
17807;DHT22;9027;48.938;9.182;2023-01-24T06:07:09;3.80;99.90
17807;DHT22;9027;48.938;9.182;2023-01-24T06:08:43;3.80;99.90
17807;DHT22;9027;48.938;9.182;2023-01-24T06:10:16;3.70;99.90
17807;DHT22;9027;48.938;9.182;2023-01-24T06:11:59;3.70;99.90
17807;DHT22;9027;48.938;9.182;2023-01-24T06:13:33;3.70;99.90
17807;DHT22;9027;48.938;9.182;2023-01-24T06:15:06;3.70;99.90
17807;DHT22;9027;48.938;9.182;2023-01-24T06:16:38;3.80;99.90
17807;DHT22;9027;48.938;9.182;2023-01-24T06:18:14;3.80;99.90
17807;DHT22;9027;48.938;9.182;2023-01-24T06:19:48;3.80;99.90
17807;DHT22;9027;48.938;9.182;2023-01-24T06:21:34;3.80;99.90
17807;DHT22;9027;48.938;9.182;2023-01-24T06:23:13;3.80;99.90
17807;DHT22;9027;48.938;9.182;2023-01-24T06:24:49;3.90;99.90
17807;DHT22;9027;48.938;9.182;2023-01-24T06:26:33;3.80;99.90
17807;DHT22;9027;48.938;9.182;2023-01-24T06:28:07;3.80;99.90
17807;DHT22;9027;48.938;9.182;2023-01-24T06:29:39;3.80;99.90
17807;DHT22;9027;48.938;9.182;2023-01-24T06:31:21;3.70;99.90
17807;DHT22;9027;48.938;9.182;2023-01-24T06:33:11;3.70;99.90
17807;DHT22;9027;48.938;9.182;2023-01-24T06:35:11;3.70;99.90
17807;DHT22;9027;48.938;9.182;2023-01-24T06:36:52;3.80;99.90
17807;DHT22;9027;48.938;9.182;2023-01-24T06:38:25;3.90;99.90
17807;DHT22;9027;48.938;9.182;2023-01-24T06:39:57;3.90;99.90
17807;DHT22;9027;48.938;9.182;2023-01-24T06:41:31;3.90;99.90
17807;DHT22;9027;48.938;9.182;2023-01-24T06:43:04;3.90;99.90
17807;DHT22;9027;48.938;9.182;2023-01-24T06:44:36;3.90;99.90
17807;DHT22;9027;48.938;9.182;2023-01-24T06:46:08;3.80;99.90
17807;DHT22;9027;48.938;9.182;2023-01-24T06:47:40;3.80;99.90
17807;DHT22;9027;48.938;9.182;2023-01-24T06:49:13;3.70;99.90
17807;DHT22;9027;48.938;9.182;2023-01-24T06:50:45;3.70;99.90
17807;DHT22;9027;48.938;9.182;2023-01-24T06:52:17;3.80;99.90
17807;DHT22;9027;48.938;9.182;2023-01-24T06:53:49;3.70;99.90
17807;DHT22;9027;48.938;9.182;2023-01-24T06:55:21;3.70;99.90
17807;DHT22;9027;48.938;9.182;2023-01-24T06:56:54;3.70;99.90
17807;DHT22;9027;48.938;9.182;2023-01-24T06:58:26;3.60;99.90
17807;DHT22;9027;48.938;9.182;2023-01-24T06:59:58;3.60;99.90
17807;DHT22;9027;48.938;9.182;2023-01-24T07:01:30;3.60;99.90
17807;DHT22;9027;48.938;9.182;2023-01-24T07:03:02;3.60;99.90
17807;DHT22;9027;48.938;9.182;2023-01-24T07:04:36;3.60;99.90
17807;DHT22;9027;48.938;9.182;2023-01-24T07:06:08;3.60;99.90
17807;DHT22;9027;48.938;9.182;2023-01-24T07:07:40;3.60;99.90
17807;DHT22;9027;48.938;9.182;2023-01-24T07:09:12;3.60;99.90
17807;DHT22;9027;48.938;9.182;2023-01-24T07:10:44;3.60;99.90
17807;DHT22;9027;48.938;9.182;2023-01-24T07:12:17;3.60;99.90
17807;DHT22;9027;48.938;9.182;2023-01-24T07:13:49;3.60;99.90
17807;DHT22;9027;48.938;9.182;2023-01-24T07:15:21;3.60;99.90
17807;DHT22;9027;48.938;9.182;2023-01-24T07:16:53;3.60;99.90
17807;DHT22;9027;48.938;9.182;2023-01-24T07:18:26;3.60;99.90
17807;DHT22;9027;48.938;9.182;2023-01-24T07:19:59;3.60;99.90
17807;DHT22;9027;48.938;9.182;2023-01-24T07:21:39;3.60;99.90
17807;DHT22;9027;48.938;9.182;2023-01-24T07:23:19;3.60;99.90
17807;DHT22;9027;48.938;9.182;2023-01-24T07:24:52;3.60;99.90
17807;DHT22;9027;48.938;9.182;2023-01-24T07:26:25;3.60;99.90
17807;DHT22;9027;48.938;9.182;2023-01-24T07:27:59;3.60;99.90
17807;DHT22;9027;48.938;9.182;2023-01-24T07:29:31;3.60;99.90
17807;DHT22;9027;48.938;9.182;2023-01-24T07:31:03;3.60;99.90
17807;DHT22;9027;48.938;9.182;2023-01-24T07:32:35;3.60;99.90
17807;DHT22;9027;48.938;9.182;2023-01-24T07:34:07;3.60;99.90
17807;DHT22;9027;48.938;9.182;2023-01-24T07:35:39;3.60;99.90
17807;DHT22;9027;48.938;9.182;2023-01-24T07:37:11;3.60;99.90
17807;DHT22;9027;48.938;9.182;2023-01-24T07:38:43;3.60;99.90
17807;DHT22;9027;48.938;9.182;2023-01-24T07:40:15;3.60;99.90
17807;DHT22;9027;48.938;9.182;2023-01-24T07:41:47;3.60;99.90
17807;DHT22;9027;48.938;9.182;2023-01-24T07:43:23;3.60;99.90
17807;DHT22;9027;48.938;9.182;2023-01-24T07:44:55;3.60;99.90
17807;DHT22;9027;48.938;9.182;2023-01-24T07:46:28;3.60;99.90
17807;DHT22;9027;48.938;9.182;2023-01-24T07:48:00;3.60;99.90
17807;DHT22;9027;48.938;9.182;2023-01-24T07:49:32;3.60;99.90
17807;DHT22;9027;48.938;9.182;2023-01-24T07:51:05;3.60;99.90
17807;DHT22;9027;48.938;9.182;2023-01-24T07:52:37;3.60;99.90
17807;DHT22;9027;48.938;9.182;2023-01-24T07:54:09;3.70;99.90
17807;DHT22;9027;48.938;9.182;2023-01-24T07:55:41;3.70;99.90
17807;DHT22;9027;48.938;9.182;2023-01-24T07:57:12;3.70;99.90
17807;DHT22;9027;48.938;9.182;2023-01-24T07:58:47;3.70;99.90
17807;DHT22;9027;48.938;9.182;2023-01-24T08:00:19;3.70;99.90
17807;DHT22;9027;48.938;9.182;2023-01-24T08:01:51;3.70;99.90
17807;DHT22;9027;48.938;9.182;2023-01-24T08:03:23;3.70;99.90
17807;DHT22;9027;48.938;9.182;2023-01-24T08:04:55;3.60;99.90
17807;DHT22;9027;48.938;9.182;2023-01-24T08:06:27;3.70;99.90
17807;DHT22;9027;48.938;9.182;2023-01-24T08:07:59;3.70;99.90
17807;DHT22;9027;48.938;9.182;2023-01-24T08:09:31;3.70;99.90
17807;DHT22;9027;48.938;9.182;2023-01-24T08:11:03;3.70;99.90
17807;DHT22;9027;48.938;9.182;2023-01-24T08:12:35;3.80;99.90
17807;DHT22;9027;48.938;9.182;2023-01-24T08:14:09;3.80;99.90
17807;DHT22;9027;48.938;9.182;2023-01-24T08:15:41;3.70;99.90
17807;DHT22;9027;48.938;9.182;2023-01-24T08:17:12;3.70;99.90
17807;DHT22;9027;48.938;9.182;2023-01-24T08:18:44;3.70;99.90
17807;DHT22;9027;48.938;9.182;2023-01-24T08:20:17;3.70;99.90
17807;DHT22;9027;48.938;9.182;2023-01-24T08:21:49;3.70;99.90
17807;DHT22;9027;48.938;9.182;2023-01-24T08:23:21;3.70;99.90
17807;DHT22;9027;48.938;9.182;2023-01-24T08:24:53;3.70;99.90
17807;DHT22;9027;48.938;9.182;2023-01-24T08:26:25;3.70;99.90
17807;DHT22;9027;48.938;9.182;2023-01-24T08:27:57;3.70;99.90
17807;DHT22;9027;48.938;9.182;2023-01-24T08:29:30;3.70;99.90
17807;DHT22;9027;48.938;9.182;2023-01-24T08:31:02;3.80;99.90
17807;DHT22;9027;48.938;9.182;2023-01-24T08:32:34;3.90;99.90
17807;DHT22;9027;48.938;9.182;2023-01-24T08:34:06;3.90;99.90
17807;DHT22;9027;48.938;9.182;2023-01-24T08:35:38;3.80;99.90
17807;DHT22;9027;48.938;9.182;2023-01-24T08:37:10;3.90;99.90
17807;DHT22;9027;48.938;9.182;2023-01-24T08:38:42;3.90;99.90
17807;DHT22;9027;48.938;9.182;2023-01-24T08:40:14;3.90;99.90
17807;DHT22;9027;48.938;9.182;2023-01-24T08:41:46;3.90;99.90
17807;DHT22;9027;48.938;9.182;2023-01-24T08:43:18;3.90;99.90
17807;DHT22;9027;48.938;9.182;2023-01-24T08:44:51;3.80;99.90
17807;DHT22;9027;48.938;9.182;2023-01-24T08:46:23;3.90;99.90
17807;DHT22;9027;48.938;9.182;2023-01-24T08:47:56;3.80;99.90
17807;DHT22;9027;48.938;9.182;2023-01-24T08:49:27;3.80;99.90
17807;DHT22;9027;48.938;9.182;2023-01-24T08:51:02;3.90;99.90
17807;DHT22;9027;48.938;9.182;2023-01-24T08:52:34;3.90;99.90
17807;DHT22;9027;48.938;9.182;2023-01-24T08:54:06;3.90;99.90
17807;DHT22;9027;48.938;9.182;2023-01-24T08:55:38;3.90;99.90
17807;DHT22;9027;48.938;9.182;2023-01-24T08:57:10;3.90;99.90
17807;DHT22;9027;48.938;9.182;2023-01-24T08:58:42;3.90;99.90
17807;DHT22;9027;48.938;9.182;2023-01-24T09:00:16;3.90;99.90
17807;DHT22;9027;48.938;9.182;2023-01-24T09:01:49;4.00;99.90
17807;DHT22;9027;48.938;9.182;2023-01-24T09:03:21;4.00;99.90
17807;DHT22;9027;48.938;9.182;2023-01-24T09:04:53;4.00;99.90
17807;DHT22;9027;48.938;9.182;2023-01-24T09:06:25;4.00;99.90
17807;DHT22;9027;48.938;9.182;2023-01-24T09:07:58;4.00;99.90
17807;DHT22;9027;48.938;9.182;2023-01-24T09:09:31;3.90;99.90
17807;DHT22;9027;48.938;9.182;2023-01-24T09:11:03;3.90;99.90
17807;DHT22;9027;48.938;9.182;2023-01-24T09:12:35;3.90;99.90
17807;DHT22;9027;48.938;9.182;2023-01-24T09:14:07;4.00;99.90
17807;DHT22;9027;48.938;9.182;2023-01-24T09:15:40;4.00;99.90
17807;DHT22;9027;48.938;9.182;2023-01-24T09:17:12;4.00;99.90
17807;DHT22;9027;48.938;9.182;2023-01-24T09:18:44;4.00;99.90
17807;DHT22;9027;48.938;9.182;2023-01-24T09:20:16;4.10;99.90
17807;DHT22;9027;48.938;9.182;2023-01-24T09:21:49;4.10;99.90
17807;DHT22;9027;48.938;9.182;2023-01-24T09:23:22;4.10;99.90
17807;DHT22;9027;48.938;9.182;2023-01-24T09:24:54;4.10;99.90
17807;DHT22;9027;48.938;9.182;2023-01-24T09:26:26;4.10;99.90
17807;DHT22;9027;48.938;9.182;2023-01-24T09:27:58;4.20;99.90
17807;DHT22;9027;48.938;9.182;2023-01-24T09:29:30;4.20;99.90
17807;DHT22;9027;48.938;9.182;2023-01-24T09:31:07;4.20;99.90
17807;DHT22;9027;48.938;9.182;2023-01-24T09:32:39;4.20;99.90
17807;DHT22;9027;48.938;9.182;2023-01-24T09:34:11;4.20;99.90
17807;DHT22;9027;48.938;9.182;2023-01-24T09:35:51;4.20;99.90
17807;DHT22;9027;48.938;9.182;2023-01-24T09:37:23;4.20;99.90
17807;DHT22;9027;48.938;9.182;2023-01-24T09:38:55;4.30;99.90
17807;DHT22;9027;48.938;9.182;2023-01-24T09:40:30;4.20;99.90
17807;DHT22;9027;48.938;9.182;2023-01-24T09:42:12;4.30;99.90
17807;DHT22;9027;48.938;9.182;2023-01-24T09:43:50;4.30;99.90
17807;DHT22;9027;48.938;9.182;2023-01-24T09:45:29;4.30;99.90
17807;DHT22;9027;48.938;9.182;2023-01-24T09:47:20;4.30;99.90
17807;DHT22;9027;48.938;9.182;2023-01-24T09:48:59;4.30;99.90
17807;DHT22;9027;48.938;9.182;2023-01-24T09:50:37;4.30;99.90
17807;DHT22;9027;48.938;9.182;2023-01-24T09:52:12;4.30;99.90
17807;DHT22;9027;48.938;9.182;2023-01-24T09:53:50;4.30;99.90
17807;DHT22;9027;48.938;9.182;2023-01-24T09:55:26;4.30;99.90
17807;DHT22;9027;48.938;9.182;2023-01-24T09:56:59;4.30;99.90
17807;DHT22;9027;48.938;9.182;2023-01-24T09:58:33;4.30;99.90
17807;DHT22;9027;48.938;9.182;2023-01-24T10:00:15;4.30;99.90
17807;DHT22;9027;48.938;9.182;2023-01-24T10:01:49;4.30;99.90
17807;DHT22;9027;48.938;9.182;2023-01-24T10:03:24;4.30;99.90
17807;DHT22;9027;48.938;9.182;2023-01-24T10:04:56;4.30;99.90
17807;DHT22;9027;48.938;9.182;2023-01-24T10:06:28;4.30;99.90
17807;DHT22;9027;48.938;9.182;2023-01-24T10:08:14;4.30;99.90
17807;DHT22;9027;48.938;9.182;2023-01-24T10:09:58;4.30;99.90
17807;DHT22;9027;48.938;9.182;2023-01-24T10:11:35;4.40;99.90
17807;DHT22;9027;48.938;9.182;2023-01-24T10:15:35;4.40;99.90
17807;DHT22;9027;48.938;9.182;2023-01-24T10:17:25;4.40;99.90
17807;DHT22;9027;48.938;9.182;2023-01-24T10:19:09;4.30;99.90
17807;DHT22;9027;48.938;9.182;2023-01-24T10:21:03;4.40;99.90
17807;DHT22;9027;48.938;9.182;2023-01-24T10:23:00;4.40;99.90